Time;durP1;ratioP1;P1;durP2;ratioP2;P2;SDS_P1;SDS_P2;PMS_P1;PMS_P2;Temp;Humidity;BMP_temperature;BMP_pressure;BME280_temperature;BME280_humidity;BME280_pressure;Samples;Min_cycle;Max_cycle;Signal;HPM_P1;HPM_P2
2022/12/30 00:01:08;;;;;;;20.48;2.38;;;16.30;91.50;;;;;;5052763;28;20723;-92
2022/12/30 00:03:35;;;;;;;18.63;1.90;;;16.30;91.50;;;;;;5060794;28;20362;-91
2022/12/30 00:06:03;;;;;;;10.82;2.63;;;16.30;91.50;;;;;;5072948;28;20059;-88
2022/12/30 00:08:46;;;;;;;13.43;1.73;;;16.30;91.50;;;;;;5062957;28;20017;-89
2022/12/30 00:11:26;;;;;;;13.98;2.45;;;16.30;91.50;;;;;;5070333;28;20027;-91
2022/12/30 00:34:00;;;;;;;8.13;1.95;;;16.30;91.60;;;;;;5074280;28;20031;-90
2022/12/30 00:36:28;;;;;;;6.38;1.52;;;16.30;91.60;;;;;;5072501;28;20454;-91
2022/12/30 00:38:54;;;;;;;7.40;1.63;;;16.30;91.60;;;;;;5072239;28;20074;-91
2022/12/30 00:44:03;;;;;;;5.85;1.27;;;16.30;91.60;;;;;;5074024;28;20039;-91
2022/12/30 00:46:30;;;;;;;7.05;1.42;;;16.30;91.60;;;;;;5071945;28;20032;-90
2022/12/30 00:57:08;;;;;;;5.60;2.22;;;16.30;91.70;;;;;;5053476;28;20044;-91
2022/12/30 00:59:33;;;;;;;5.07;1.20;;;16.30;91.70;;;;;;5064021;28;20025;-90
2022/12/30 01:01:59;;;;;;;6.00;1.52;;;16.30;91.70;;;;;;5071954;28;20563;-91
2022/12/30 01:04:25;;;;;;;7.97;1.42;;;16.30;91.70;;;;;;5072099;28;20474;-91
2022/12/30 01:06:50;;;;;;;5.10;1.33;;;16.30;91.70;;;;;;5070988;28;20079;-90
2022/12/30 01:09:16;;;;;;;6.20;1.38;;;16.30;91.70;;;;;;5064111;28;20140;-89
2022/12/30 01:11:41;;;;;;;5.60;1.25;;;16.20;91.80;;;;;;5069813;28;20095;-90
2022/12/30 01:14:07;;;;;;;5.30;1.00;;;16.20;91.80;;;;;;5073052;28;20123;-91
2022/12/30 01:16:32;;;;;;;4.55;1.40;;;16.20;91.80;;;;;;5073290;28;20020;-90
2022/12/30 01:18:58;;;;;;;2.97;1.40;;;16.20;91.80;;;;;;5072705;28;20399;-91
2022/12/30 01:21:24;;;;;;;3.65;1.40;;;16.20;91.80;;;;;;5072973;28;20048;-92
2022/12/30 01:23:50;;;;;;;2.33;1.20;;;16.30;91.80;;;;;;5070605;28;20017;-91
2022/12/30 01:26:16;;;;;;;7.28;1.38;;;16.30;91.90;;;;;;5072157;28;20031;-91
2022/12/30 01:28:42;;;;;;;2.00;1.05;;;16.30;91.80;;;;;;5061006;28;20028;-90
2022/12/30 01:31:10;;;;;;;7.82;1.10;;;16.30;91.90;;;;;;5057080;28;20427;-91
2022/12/30 01:33:36;;;;;;;5.53;1.45;;;16.30;91.90;;;;;;5071721;28;20025;-91
2022/12/30 01:36:03;;;;;;;7.22;1.30;;;16.30;91.90;;;;;;5071720;28;20024;-91
2022/12/30 01:38:30;;;;;;;1.95;1.20;;;16.30;91.90;;;;;;5065910;28;20509;-90
2022/12/30 01:40:57;;;;;;;9.43;1.33;;;16.30;91.90;;;;;;5053520;28;20033;-90
2022/12/30 01:43:47;;;;;;;2.75;1.17;;;16.30;91.90;;;;;;5066627;28;20047;-91
2022/12/30 01:46:22;;;;;;;3.40;1.10;;;16.20;91.90;;;;;;5057930;28;20032;-91
2022/12/30 01:48:51;;;;;;;5.53;1.17;;;16.30;91.90;;;;;;5051705;28;20029;-90
2022/12/30 01:51:20;;;;;;;3.38;0.95;;;16.20;91.90;;;;;;5051269;28;20059;-90
2022/12/30 01:53:49;;;;;;;4.30;1.70;;;16.30;91.90;;;;;;5051632;28;20032;-91
2022/12/30 01:56:22;;;;;;;2.83;1.17;;;16.30;91.90;;;;;;5051472;28;20437;-91
2022/12/30 01:58:54;;;;;;;2.50;0.95;;;16.20;91.90;;;;;;5072234;28;20024;-88
2022/12/30 02:01:19;;;;;;;3.90;1.10;;;16.20;91.90;;;;;;5069582;28;20048;-91
2022/12/30 02:03:53;;;;;;;7.00;1.25;;;16.30;92.00;;;;;;5055431;28;20437;-91
2022/12/30 02:06:24;;;;;;;5.65;1.00;;;16.20;91.90;;;;;;5069288;28;20028;-91
2022/12/30 02:08:49;;;;;;;6.57;1.73;;;16.20;91.90;;;;;;5065747;28;20025;-91
2022/12/30 02:11:15;;;;;;;10.20;1.30;;;16.30;92.20;;;;;;5055118;28;20029;-91
2022/12/30 02:13:40;;;;;;;13.45;1.73;;;16.20;92.10;;;;;;5071787;28;20517;-90
2022/12/30 02:16:30;;;;;;;12.30;1.92;;;16.30;92.10;;;;;;5075102;28;20029;-91
2022/12/30 02:19:11;;;;;;;13.50;1.58;;;16.30;92.10;;;;;;5070173;28;20101;-91
2022/12/30 02:21:58;;;;;;;10.02;1.63;;;16.20;92.10;;;;;;5055060;28;20032;-91
2022/12/30 02:24:45;;;;;;;13.70;1.65;;;16.20;92.10;;;;;;5054835;28;20025;-91
2022/12/30 02:27:32;;;;;;;8.07;1.90;;;16.20;92.10;;;;;;5057765;28;20099;-90
2022/12/30 02:30:04;;;;;;;24.02;2.10;;;16.20;92.10;;;;;;5074943;28;20059;-90
2022/12/30 02:32:48;;;;;;;9.23;1.40;;;16.20;92.10;;;;;;5075103;28;20032;-91
2022/12/30 02:35:35;;;;;;;5.85;1.55;;;16.20;92.10;;;;;;5064548;28;20112;-90
2022/12/30 02:38:27;;;;;;;9.25;1.60;;;16.20;92.10;;;;;;5054801;28;20033;-90
2022/12/30 02:46:48;;;;;;;5.95;1.23;;;16.20;92.10;;;;;;5075973;28;20091;-90
2022/12/30 02:49:15;;;;;;;6.32;1.40;;;16.20;92.10;;;;;;5074030;28;20119;-89
2022/12/30 02:54:27;;;;;;;8.55;1.25;;;16.20;92.20;;;;;;5075520;28;20040;-89
2022/12/30 02:56:53;;;;;;;5.03;1.33;;;16.30;92.20;;;;;;5070127;28;20025;-90
2022/12/30 03:05:24;;;;;;;6.17;1.27;;;16.20;92.50;;;;;;5075608;28;20071;-91
2022/12/30 03:08:06;;;;;;;5.60;1.35;;;16.20;92.20;;;;;;5061078;28;20272;-90
2022/12/30 03:11:12;;;;;;;5.50;1.38;;;16.20;92.20;;;;;;5053188;28;20017;-92
2022/12/30 03:13:37;;;;;;;5.80;1.50;;;16.20;92.20;;;;;;5062558;28;20115;-93
2022/12/30 03:16:16;;;;;;;4.97;1.15;;;16.20;92.20;;;;;;5054385;28;20060;-91
2022/12/30 03:18:44;;;;;;;2.58;1.15;;;16.20;92.20;;;;;;5055080;28;20037;-90
2022/12/30 03:21:11;;;;;;;9.00;1.30;;;16.20;92.20;;;;;;5053790;28;20020;-91
2022/12/30 03:29:13;;;;;;;9.93;1.50;;;16.20;92.20;;;;;;5075494;28;20035;-91
2022/12/30 03:31:39;;;;;;;5.82;1.38;;;16.10;92.20;;;;;;5073723;28;20381;-91
2022/12/30 03:34:05;;;;;;;2.97;0.88;;;16.20;92.20;;;;;;5073723;28;20024;-91
2022/12/30 03:36:38;;;;;;;2.97;1.20;;;16.20;92.20;;;;;;5073198;28;20025;-91
2022/12/30 03:39:19;;;;;;;6.85;1.02;;;16.20;92.20;;;;;;5073507;28;20036;-90
2022/12/30 03:41:47;;;;;;;4.85;1.40;;;16.10;92.20;;;;;;5073342;28;20024;-90
2022/12/30 03:44:13;;;;;;;6.07;1.00;;;16.10;92.20;;;;;;5057065;28;20465;-91
2022/12/30 03:46:41;;;;;;;6.20;1.05;;;16.10;92.20;;;;;;5053339;28;20017;-91
2022/12/30 03:49:07;;;;;;;3.13;1.08;;;16.10;92.20;;;;;;5054532;28;20029;-91
2022/12/30 03:51:33;;;;;;;5.75;1.15;;;16.10;92.20;;;;;;5053485;28;20440;-89
2022/12/30 03:53:58;;;;;;;2.45;0.95;;;16.10;92.20;;;;;;5071886;28;20027;-91
2022/12/30 03:56:24;;;;;;;9.75;1.27;;;16.10;92.20;;;;;;5073369;28;20034;-90
2022/12/30 03:58:49;;;;;;;3.88;1.02;;;16.10;92.20;;;;;;5073431;28;20124;-90
2022/12/30 04:01:15;;;;;;;4.47;1.00;;;16.10;92.20;;;;;;5073217;28;20078;-91
2022/12/30 04:03:40;;;;;;;2.78;0.88;;;16.10;92.20;;;;;;5073469;28;20111;-91
2022/12/30 04:06:06;;;;;;;5.97;0.98;;;16.10;92.20;;;;;;5054503;28;20068;-91
2022/12/30 04:08:32;;;;;;;1.83;0.90;;;16.10;92.20;;;;;;5053044;28;20036;-90
2022/12/30 04:10:57;;;;;;;8.98;1.42;;;16.10;92.20;;;;;;5052973;28;20466;-90
2022/12/30 04:13:23;;;;;;;10.30;1.00;;;16.10;92.20;;;;;;5073210;28;20033;-91
2022/12/30 04:15:50;;;;;;;6.20;1.00;;;16.10;92.20;;;;;;5065669;28;20524;-91
2022/12/30 04:18:16;;;;;;;5.38;1.13;;;16.10;92.20;;;;;;5053025;28;20025;-90
2022/12/30 04:20:41;;;;;;;2.22;0.88;;;16.20;92.30;;;;;;5065878;28;20028;-90
2022/12/30 04:23:07;;;;;;;6.47;1.00;;;16.20;92.40;;;;;;5062643;28;20024;-91
2022/12/30 04:25:33;;;;;;;5.78;1.42;;;16.20;92.40;;;;;;5065788;28;20108;-91
2022/12/30 04:27:58;;;;;;;2.65;1.23;;;16.20;92.50;;;;;;5073030;28;20062;-91
2022/12/30 04:30:24;;;;;;;3.22;0.88;;;16.20;92.50;;;;;;5072590;28;20021;-90
2022/12/30 04:32:49;;;;;;;4.05;1.05;;;16.20;92.50;;;;;;5069331;28;20076;-91
2022/12/30 04:35:15;;;;;;;2.95;0.98;;;16.30;92.50;;;;;;5061962;28;20395;-91
2022/12/30 04:37:40;;;;;;;8.40;0.90;;;16.20;92.60;;;;;;5052471;28;20070;-90
2022/12/30 04:40:07;;;;;;;3.42;1.15;;;16.30;92.60;;;;;;5052254;28;20048;-91
2022/12/30 04:42:32;;;;;;;2.55;0.82;;;16.30;92.60;;;;;;5052371;28;20032;-91
2022/12/30 04:44:58;;;;;;;3.03;0.77;;;16.30;92.50;;;;;;5052450;28;20021;-89
2022/12/30 04:47:23;;;;;;;3.90;0.90;;;16.30;92.60;;;;;;5052463;28;20029;-91
2022/12/30 04:49:49;;;;;;;2.33;1.10;;;16.30;92.50;;;;;;5060399;28;20095;-91
2022/12/30 04:52:14;;;;;;;2.13;0.85;;;16.30;92.50;;;;;;5072042;28;20116;-91
2022/12/30 04:54:40;;;;;;;3.10;1.27;;;16.40;92.50;;;;;;5072385;28;20020;-91
2022/12/30 04:57:05;;;;;;;2.60;0.82;;;16.40;92.50;;;;;;5072057;28;20670;-91
2022/12/30 04:59:31;;;;;;;1.10;0.63;;;16.40;92.60;;;;;;5072622;28;20070;-91
2022/12/30 05:01:57;;;;;;;5.75;1.30;;;16.40;92.50;;;;;;5055865;28;20025;-91
2022/12/30 05:04:22;;;;;;;1.50;0.93;;;16.40;92.40;;;;;;5071837;28;20020;-91
2022/12/30 05:06:48;;;;;;;2.55;1.08;;;16.40;92.40;;;;;;5071878;28;20064;-91
2022/12/30 05:09:13;;;;;;;1.17;0.80;;;16.40;92.40;;;;;;5071961;28;20016;-91
2022/12/30 05:11:39;;;;;;;2.88;0.82;;;16.50;92.30;;;;;;5071759;28;20032;-91
2022/12/30 05:14:04;;;;;;;3.55;0.80;;;16.50;92.40;;;;;;5072202;28;20038;-90
2022/12/30 05:16:30;;;;;;;3.60;0.80;;;16.50;92.50;;;;;;5071841;28;20106;-91
2022/12/30 05:18:55;;;;;;;3.85;0.90;;;16.50;92.50;;;;;;5072858;28;20028;-91
2022/12/30 05:21:21;;;;;;;3.97;0.90;;;16.50;92.60;;;;;;5071629;28;20069;-91
2022/12/30 05:26:31;;;;;;;0.95;0.80;;;16.50;92.60;;;;;;5053181;28;20032;-91
2022/12/30 05:28:56;;;;;;;4.88;1.25;;;16.50;92.50;;;;;;5080578;28;20024;-92
2022/12/30 05:31:22;;;;;;;5.43;0.75;;;16.60;92.60;;;;;;5071662;28;20027;-91
2022/12/30 05:33:48;;;;;;;4.00;0.65;;;16.60;92.60;;;;;;5071149;28;20064;-94
2022/12/30 05:36:14;;;;;;;3.70;0.68;;;16.60;92.60;;;;;;5072011;28;20036;-91
2022/12/30 05:38:40;;;;;;;1.08;0.70;;;16.60;92.60;;;;;;5071407;28;20083;-91
2022/12/30 05:41:06;;;;;;;7.72;0.73;;;16.60;92.60;;;;;;5071270;28;20477;-91
2022/12/30 05:43:32;;;;;;;3.75;0.82;;;16.60;92.60;;;;;;5051756;28;20119;-91
2022/12/30 05:45:57;;;;;;;0.68;0.68;;;16.60;92.60;;;;;;5065484;28;20094;-91
2022/12/30 05:48:24;;;;;;;2.72;0.73;;;16.60;92.60;;;;;;5068771;28;20470;-90
2022/12/30 05:50:50;;;;;;;1.83;0.80;;;16.60;92.60;;;;;;5051249;28;20032;-91
2022/12/30 05:53:16;;;;;;;5.68;1.00;;;16.60;92.70;;;;;;5051897;28;20025;-91
2022/12/30 05:55:42;;;;;;;1.00;0.85;;;16.60;92.70;;;;;;5051124;28;20496;-89
2022/12/30 05:58:07;;;;;;;5.57;0.77;;;16.70;92.60;;;;;;5051491;28;20025;-91
2022/12/30 06:00:33;;;;;;;5.30;0.73;;;16.70;92.70;;;;;;5057627;28;20060;-91
2022/12/30 06:02:58;;;;;;;5.13;0.90;;;16.70;92.80;;;;;;5071716;28;20029;-90
2022/12/30 06:05:24;;;;;;;6.35;0.70;;;16.70;92.80;;;;;;5062752;28;20025;-91
2022/12/30 06:07:49;;;;;;;6.75;1.00;;;16.70;92.70;;;;;;5051506;28;20033;-91
2022/12/30 06:10:15;;;;;;;0.85;0.65;;;16.70;92.80;;;;;;5051811;28;20048;-90
2022/12/30 06:12:41;;;;;;;2.15;0.68;;;16.70;92.70;;;;;;5070995;28;20393;-91
2022/12/30 06:15:07;;;;;;;1.33;0.85;;;16.70;92.80;;;;;;5087976;28;20097;-91
2022/12/30 06:17:32;;;;;;;2.20;0.80;;;16.70;92.80;;;;;;5078172;28;20115;-91
2022/12/30 06:19:58;;;;;;;2.60;0.70;;;16.70;92.70;;;;;;5070978;28;20115;-91
2022/12/30 06:22:23;;;;;;;4.80;0.70;;;16.70;92.70;;;;;;5070761;28;20024;-91
2022/12/30 06:24:49;;;;;;;11.45;1.30;;;16.70;92.70;;;;;;5065973;28;20032;-91
2022/12/30 06:27:15;;;;;;;2.90;0.88;;;16.70;92.70;;;;;;5060684;28;20025;-91
2022/12/30 06:29:41;;;;;;;7.40;1.20;;;16.70;92.70;;;;;;5051320;28;20028;-90
2022/12/30 06:32:06;;;;;;;6.82;0.98;;;16.70;92.70;;;;;;5055212;28;20393;-91
2022/12/30 06:34:32;;;;;;;2.47;1.00;;;16.70;92.70;;;;;;5068731;28;20028;-91
2022/12/30 06:36:58;;;;;;;3.83;0.80;;;16.70;92.70;;;;;;5051344;28;20078;-90
2022/12/30 06:39:23;;;;;;;2.75;0.80;;;16.70;92.70;;;;;;5051212;28;20033;-91
2022/12/30 06:41:49;;;;;;;1.35;0.70;;;16.70;92.60;;;;;;5052430;28;20029;-91
2022/12/30 06:44:14;;;;;;;4.15;1.60;;;16.70;92.60;;;;;;5060945;28;20036;-90
2022/12/30 06:46:40;;;;;;;1.40;0.98;;;16.70;92.60;;;;;;5054881;28;20112;-90
2022/12/30 06:49:06;;;;;;;1.95;1.23;;;16.70;92.60;;;;;;5071364;28;20056;-91
2022/12/30 06:51:31;;;;;;;1.65;0.82;;;16.70;92.90;;;;;;5074207;28;20024;-91
2022/12/30 06:53:57;;;;;;;3.25;1.10;;;16.70;92.60;;;;;;5074324;28;20040;-91
2022/12/30 06:56:22;;;;;;;4.35;0.82;;;16.70;92.50;;;;;;5074170;28;20119;-91
2022/12/30 06:58:48;;;;;;;2.15;0.85;;;16.70;92.50;;;;;;5070602;28;20036;-90
2022/12/30 07:01:13;;;;;;;5.15;0.80;;;16.70;92.40;;;;;;5069798;28;20478;-90
2022/12/30 07:03:39;;;;;;;1.98;0.85;;;16.70;92.40;;;;;;5074329;28;20466;-91
2022/12/30 07:06:05;;;;;;;2.33;0.68;;;16.60;92.40;;;;;;5058988;28;20032;-90
2022/12/30 07:08:31;;;;;;;1.15;0.70;;;16.60;92.40;;;;;;5053762;28;20029;-90
2022/12/30 07:10:56;;;;;;;1.65;0.63;;;16.60;92.40;;;;;;5053664;28;20509;-91
2022/12/30 07:13:22;;;;;;;2.47;0.80;;;16.60;92.40;;;;;;5054319;28;20032;-90
2022/12/30 07:15:47;;;;;;;7.30;1.10;;;16.60;92.40;;;;;;5053922;28;20114;-89
2022/12/30 07:18:13;;;;;;;3.47;1.02;;;16.60;92.50;;;;;;5054602;28;20040;-91
2022/12/30 07:20:39;;;;;;;4.65;1.00;;;16.60;92.80;;;;;;5067820;28;20102;-91
2022/12/30 07:23:05;;;;;;;5.72;0.93;;;16.60;92.50;;;;;;5073375;28;20017;-91
2022/12/30 07:25:31;;;;;;;7.03;1.27;;;16.60;92.50;;;;;;5073239;28;20067;-90
2022/12/30 07:28:00;;;;;;;9.55;1.27;;;16.60;92.70;;;;;;5074372;28;20024;-91
2022/12/30 07:30:27;;;;;;;5.32;1.10;;;16.60;92.90;;;;;;5073030;28;20020;-92
2022/12/30 07:32:53;;;;;;;10.05;1.40;;;16.60;92.80;;;;;;5066157;28;20119;-91
2022/12/30 07:35:19;;;;;;;6.55;1.80;;;16.60;92.70;;;;;;5075938;28;20045;-90
2022/12/30 07:37:44;;;;;;;7.03;1.38;;;16.60;92.60;;;;;;5075194;28;20082;-89
2022/12/30 07:40:10;;;;;;;3.45;0.98;;;16.70;92.60;;;;;;5074550;28;20020;-90
2022/12/30 07:42:36;;;;;;;6.65;1.05;;;16.60;92.40;;;;;;5062402;28;20025;-89
2022/12/30 07:45:02;;;;;;;4.32;0.80;;;16.60;92.40;;;;;;5053251;28;20025;-89
2022/12/30 07:47:32;;;;;;;3.78;0.98;;;16.60;92.40;;;;;;5054248;28;20497;-89
2022/12/30 07:49:58;;;;;;;6.70;0.90;;;16.60;92.40;;;;;;5056950;28;20029;-88
2022/12/30 07:52:24;;;;;;;5.30;0.95;;;16.60;92.60;;;;;;5059656;28;20092;-86
2022/12/30 07:54:49;;;;;;;3.63;1.27;;;16.60;92.50;;;;;;5054275;28;20637;-88
2022/12/30 07:57:15;;;;;;;3.97;1.05;;;16.60;92.50;;;;;;5072538;28;20025;-86
2022/12/30 07:59:40;;;;;;;7.07;1.40;;;16.60;92.40;;;;;;5072511;28;20595;-88
2022/12/30 08:02:07;;;;;;;5.70;1.20;;;16.60;92.40;;;;;;5072346;28;20334;-86
2022/12/30 08:04:33;;;;;;;4.55;0.80;;;16.60;92.30;;;;;;5072553;28;20024;-88
2022/12/30 08:06:58;;;;;;;5.15;0.80;;;16.60;92.30;;;;;;5072162;28;20428;-88
2022/12/30 08:09:24;;;;;;;3.17;0.88;;;16.60;92.30;;;;;;5054127;28;20478;-87
2022/12/30 08:11:49;;;;;;;3.85;1.00;;;16.60;92.30;;;;;;5064785;28;20535;-87
2022/12/30 08:14:15;;;;;;;2.58;0.80;;;16.60;92.30;;;;;;5072330;28;20086;-86
2022/12/30 08:16:41;;;;;;;2.53;0.85;;;16.60;92.30;;;;;;5071890;28;20021;-88
2022/12/30 08:19:06;;;;;;;2.90;0.85;;;16.60;92.30;;;;;;5068091;28;20071;-88
2022/12/30 08:21:32;;;;;;;0.68;0.68;;;16.60;92.30;;;;;;5059790;28;20017;-88
2022/12/30 08:23:57;;;;;;;2.35;0.82;;;16.60;92.30;;;;;;5063686;28;20100;-88
2022/12/30 08:26:24;;;;;;;1.25;0.70;;;16.60;92.30;;;;;;5071944;28;20017;-88
2022/12/30 08:28:50;;;;;;;2.25;1.00;;;16.60;92.30;;;;;;5054973;28;20021;-86
2022/12/30 08:31:28;;;;;;;1.38;0.80;;;16.60;92.20;;;;;;5057638;28;20066;-88
2022/12/30 08:33:54;;;;;;;0.98;0.82;;;16.60;92.20;;;;;;5071556;28;20052;-87
2022/12/30 08:36:21;;;;;;;0.80;0.75;;;16.60;92.20;;;;;;5071718;28;20366;-88
2022/12/30 08:38:50;;;;;;;3.60;0.80;;;16.50;92.20;;;;;;5071727;28;20522;-89
2022/12/30 08:41:22;;;;;;;1.85;0.80;;;16.50;92.20;;;;;;5053492;28;20055;-87
2022/12/30 08:43:48;;;;;;;2.75;0.77;;;16.50;92.20;;;;;;5071644;28;20501;-89
2022/12/30 08:46:15;;;;;;;2.00;0.80;;;16.60;92.20;;;;;;5053471;28;20021;-88
2022/12/30 08:48:41;;;;;;;1.70;0.90;;;16.50;92.20;;;;;;5057993;28;20021;-88
2022/12/30 08:51:07;;;;;;;0.75;0.75;;;16.50;92.10;;;;;;5071314;28;20035;-88
2022/12/30 08:53:33;;;;;;;1.50;0.70;;;16.50;92.10;;;;;;5071647;28;20119;-87
2022/12/30 08:56:16;;;;;;;4.60;1.15;;;16.50;92.10;;;;;;5059751;28;20505;-87
2022/12/30 08:58:42;;;;;;;1.92;0.88;;;16.60;92.10;;;;;;5051207;28;20050;-87
2022/12/30 09:01:17;;;;;;;2.03;0.80;;;16.60;92.10;;;;;;5051452;28;20509;-88
2022/12/30 09:03:43;;;;;;;5.95;0.85;;;16.60;92.10;;;;;;5051383;28;20021;-87
2022/12/30 09:06:11;;;;;;;1.15;0.70;;;16.60;92.00;;;;;;5052455;28;20025;-87
2022/12/30 09:08:37;;;;;;;1.80;0.47;;;16.60;92.00;;;;;;5050650;28;20025;-88
2022/12/30 09:11:09;;;;;;;4.47;1.25;;;16.60;92.00;;;;;;5050955;28;20031;-88
2022/12/30 09:13:36;;;;;;;6.00;1.00;;;16.60;92.00;;;;;;5051115;28;20474;-87
2022/12/30 09:16:03;;;;;;;2.80;0.90;;;16.60;92.00;;;;;;5068874;28;20442;-88
2022/12/30 09:18:29;;;;;;;4.03;0.90;;;16.60;92.00;;;;;;5071143;28;20024;-88
2022/12/30 09:20:54;;;;;;;5.80;0.80;;;16.70;92.00;;;;;;5072204;28;20066;-88
2022/12/30 09:23:20;;;;;;;0.60;0.60;;;16.70;91.90;;;;;;5071101;28;20024;-88
2022/12/30 09:25:46;;;;;;;0.88;0.60;;;16.70;91.90;;;;;;5071185;28;20024;-87
2022/12/30 09:28:12;;;;;;;3.63;0.65;;;16.80;91.90;;;;;;5072598;28;20052;-88
2022/12/30 09:30:37;;;;;;;3.33;0.80;;;16.80;91.80;;;;;;5071201;28;20028;-87
2022/12/30 09:33:03;;;;;;;3.90;0.70;;;16.80;91.80;;;;;;5071144;28;20082;-88
2022/12/30 09:35:28;;;;;;;1.23;0.60;;;16.80;91.80;;;;;;5070836;28;20070;-87
2022/12/30 09:37:54;;;;;;;1.13;0.60;;;16.80;91.80;;;;;;5071084;28;20056;-87
2022/12/30 09:40:33;;;;;;;2.88;0.80;;;16.80;91.80;;;;;;5071083;28;20420;-87
2022/12/30 09:43:17;;;;;;;3.47;0.63;;;16.80;91.80;;;;;;5071230;28;20118;-88
2022/12/30 09:46:23;;;;;;;2.38;0.60;;;16.90;91.90;;;;;;5070875;28;20028;-88
2022/12/30 09:49:03;;;;;;;2.20;0.60;;;16.90;91.90;;;;;;5024014;28;20037;-87
2022/12/30 09:51:38;;;;;;;0.88;0.82;;;16.90;92.00;;;;;;5050963;28;20111;-88
2022/12/30 09:54:14;;;;;;;2.25;0.50;;;16.90;92.00;;;;;;5063587;28;20486;-88
2022/12/30 09:56:42;;;;;;;1.35;0.70;;;16.90;92.00;;;;;;5050874;28;20440;-88
2022/12/30 09:59:13;;;;;;;0.98;0.50;;;16.90;92.00;;;;;;5050680;28;20035;-88
2022/12/30 10:02:06;;;;;;;1.88;0.80;;;16.90;92.00;;;;;;5070022;28;20055;-88
2022/12/30 10:04:37;;;;;;;0.60;0.60;;;17.00;92.00;;;;;;5060057;28;20032;-87
2022/12/30 10:07:29;;;;;;;1.08;0.60;;;17.00;92.00;;;;;;5070678;28;20172;-88
2022/12/30 10:10:22;;;;;;;2.63;0.60;;;17.00;92.00;;;;;;5060510;28;20060;-88
2022/12/30 10:13:04;;;;;;;0.82;0.80;;;17.00;92.00;;;;;;5053120;28;20540;-89
2022/12/30 10:15:54;;;;;;;0.93;0.60;;;17.00;92.00;;;;;;5057173;28;20033;-88
2022/12/30 10:18:44;;;;;;;0.90;0.60;;;17.00;92.00;;;;;;5073620;28;20401;-88
2022/12/30 10:21:37;;;;;;;0.38;0.38;;;17.00;92.00;;;;;;5074691;28;20039;-88
2022/12/30 10:24:26;;;;;;;2.08;0.73;;;17.00;92.00;;;;;;5057774;28;20020;-88
2022/12/30 10:26:52;;;;;;;1.58;0.52;;;17.00;92.00;;;;;;5054300;28;20078;-87
2022/12/30 10:29:19;;;;;;;1.08;0.80;;;17.10;92.00;;;;;;5055442;28;20021;-89
2022/12/30 10:31:47;;;;;;;0.60;0.52;;;17.10;92.00;;;;;;5070844;28;20035;-88
2022/12/30 10:34:26;;;;;;;2.25;0.70;;;17.10;92.00;;;;;;5075641;28;20036;-88
2022/12/30 10:37:04;;;;;;;1.40;0.50;;;17.10;92.00;;;;;;5075694;28;20418;-88
2022/12/30 10:39:36;;;;;;;0.68;0.63;;;17.10;92.00;;;;;;5075364;28;20033;-87
2022/12/30 10:42:43;;;;;;;1.00;0.60;;;17.10;92.00;;;;;;5055643;28;20032;-87
2022/12/30 10:45:52;;;;;;;0.95;0.75;;;17.10;92.00;;;;;;5072476;28;20115;-86
2022/12/30 10:48:51;;;;;;;2.90;0.73;;;17.20;92.00;;;;;;5074458;28;20027;-90
2022/12/30 10:51:18;;;;;;;0.70;0.70;;;17.10;87.80;;;;;;5074095;28;20456;-90
2022/12/30 10:53:47;;;;;;;1.75;1.50;;;16.80;79.20;;;;;;5074168;28;20020;-90
2022/12/30 10:56:25;;;;;;;2.37;1.20;;;16.70;76.20;;;;;;5073776;28;20050;-88
2022/12/30 10:58:52;;;;;;;1.33;1.15;;;16.20;68.80;;;;;;5073899;28;20060;-87
2022/12/30 11:01:23;;;;;;;1.33;0.95;;;15.90;70.70;;;;;;5073323;28;20028;-89
2022/12/30 11:03:56;;;;;;;4.93;0.90;;;15.90;72.70;;;;;;5075761;28;20028;-90
2022/12/30 11:06:24;;;;;;;0.70;0.70;;;16.10;76.10;;;;;;5075215;28;20025;-89
2022/12/30 11:08:51;;;;;;;0.63;0.63;;;16.20;78.30;;;;;;5064776;28;20099;-89
2022/12/30 11:11:18;;;;;;;1.48;0.70;;;16.30;79.40;;;;;;5053820;28;20563;-89
2022/12/30 11:16:41;;;;;;;1.77;0.80;;;16.40;80.90;;;;;;5069233;28;20094;-91
2022/12/30 11:19:23;;;;;;;0.77;0.70;;;16.40;81.80;;;;;;5075548;28;20077;-90
2022/12/30 11:21:52;;;;;;;0.95;0.88;;;16.40;82.70;;;;;;5069907;28;20470;-91
2022/12/30 11:24:18;;;;;;;0.80;0.80;;;16.50;83.00;;;;;;5069106;28;20032;-92
2022/12/30 11:26:48;;;;;;;0.65;0.65;;;16.50;83.10;;;;;;5076239;28;20131;-92
2022/12/30 11:29:19;;;;;;;0.70;0.70;;;16.50;84.00;;;;;;5073889;28;20083;-89
2022/12/30 11:31:48;;;;;;;0.80;0.73;;;16.60;84.50;;;;;;5065410;28;20068;-89
2022/12/30 11:34:19;;;;;;;2.65;0.75;;;16.60;84.60;;;;;;5053459;28;20082;-90
2022/12/30 11:36:45;;;;;;;0.73;0.70;;;16.60;85.10;;;;;;5053556;28;20029;-90
2022/12/30 11:39:31;;;;;;;0.95;0.70;;;16.60;85.40;;;;;;5053626;28;20032;-90
2022/12/30 11:42:00;;;;;;;1.00;0.70;;;16.60;85.80;;;;;;5053203;28;20096;-90
2022/12/30 11:44:31;;;;;;;0.60;0.60;;;16.70;86.10;;;;;;5056510;28;20025;-89
2022/12/30 11:47:16;;;;;;;0.70;0.70;;;16.70;86.30;;;;;;5072965;28;20025;-86
2022/12/30 11:49:50;;;;;;;0.65;0.60;;;16.70;86.50;;;;;;5072247;28;20354;-88
2022/12/30 11:52:20;;;;;;;0.60;0.60;;;16.70;86.80;;;;;;5073865;28;20077;-85
2022/12/30 11:54:53;;;;;;;2.83;1.35;;;16.70;87.00;;;;;;5072741;28;20027;-87
2022/12/30 11:57:46;;;;;;;0.70;0.70;;;16.80;88.00;;;;;;5073079;28;20039;-90
2022/12/30 12:00:12;;;;;;;0.55;0.50;;;16.80;87.50;;;;;;5069963;28;20039;-89
2022/12/30 12:02:40;;;;;;;1.15;0.60;;;16.80;87.60;;;;;;5072954;28;20020;-89
2022/12/30 12:05:29;;;;;;;0.75;0.75;;;16.80;87.60;;;;;;5072953;28;20389;-89
2022/12/30 12:08:12;;;;;;;0.98;0.80;;;16.80;87.80;;;;;;5052965;28;20048;-90
2022/12/30 12:10:39;;;;;;;0.60;0.60;;;16.90;88.00;;;;;;5052635;28;20429;-91
2022/12/30 12:13:26;;;;;;;6.03;0.77;;;16.90;88.10;;;;;;5072718;28;20078;-90
2022/12/30 12:15:54;;;;;;;1.77;0.60;;;16.90;88.30;;;;;;5072141;28;20027;-91
2022/12/30 12:18:30;;;;;;;1.27;0.70;;;16.90;88.40;;;;;;5066711;28;20099;-89
2022/12/30 12:21:05;;;;;;;0.60;0.60;;;16.90;88.50;;;;;;5059967;28;20016;-90
2022/12/30 12:23:51;;;;;;;0.68;0.68;;;17.00;88.70;;;;;;5060449;28;20021;-90
2022/12/30 12:26:25;;;;;;;0.63;0.63;;;17.00;88.80;;;;;;5071167;28;20413;-90
2022/12/30 12:28:53;;;;;;;0.52;0.52;;;17.00;89.00;;;;;;5072697;28;20119;-89
2022/12/30 12:31:46;;;;;;;1.08;0.47;;;17.00;89.10;;;;;;5072242;28;20182;-86
2022/12/30 12:34:42;;;;;;;10.02;1.10;;;17.00;89.10;;;;;;5088653;28;20016;-87
2022/12/30 12:37:47;;;;;;;2.95;0.70;;;17.10;89.10;;;;;;5067089;28;20116;-89
2022/12/30 12:40:22;;;;;;;0.85;0.50;;;17.10;89.20;;;;;;5052627;28;20037;-91
2022/12/30 12:43:02;;;;;;;4.22;0.77;;;17.10;89.20;;;;;;5052728;28;20155;-91
2022/12/30 12:45:47;;;;;;;0.50;0.50;;;17.10;89.30;;;;;;5066355;28;20025;-90
2022/12/30 12:48:41;;;;;;;0.82;0.60;;;17.10;87.50;;;;;;5062592;28;20021;-90
2022/12/30 12:51:39;;;;;;;1.05;0.90;;;17.00;83.60;;;;;;5066862;28;20029;-89
2022/12/30 12:54:04;;;;;;;1.20;1.10;;;16.90;81.90;;;;;;5073158;28;20046;-89
2022/12/30 12:56:35;;;;;;;1.25;1.10;;;16.90;82.00;;;;;;5059943;28;20032;-88
2022/12/30 12:59:44;;;;;;;1.10;0.90;;;16.80;81.30;;;;;;5053339;28;20040;-88
2022/12/30 13:02:47;;;;;;;1.90;0.82;;;16.80;80.40;;;;;;5059525;28;20032;-90
2022/12/30 13:05:21;;;;;;;4.47;1.13;;;16.70;80.00;;;;;;5064821;28;20025;-92
2022/12/30 13:07:52;;;;;;;1.92;1.00;;;16.70;79.90;;;;;;5053147;28;20394;-89
2022/12/30 13:10:32;;;;;;;1.42;0.80;;;16.70;79.40;;;;;;5052743;28;20036;-90
2022/12/30 13:13:07;;;;;;;3.28;0.90;;;16.60;79.40;;;;;;5053016;28;20041;-89
2022/12/30 13:15:33;;;;;;;3.60;0.93;;;16.60;79.20;;;;;;5063695;28;20029;-90
2022/12/30 13:18:03;;;;;;;2.70;0.80;;;16.60;78.90;;;;;;5065128;28;20078;-88
2022/12/30 13:20:32;;;;;;;2.20;0.90;;;16.50;78.70;;;;;;5059092;28;20173;-88
2022/12/30 13:23:02;;;;;;;2.10;0.90;;;16.50;77.80;;;;;;5067759;28;20033;-88
2022/12/30 13:25:40;;;;;;;1.42;0.77;;;16.50;78.10;;;;;;5070684;28;20047;-89
2022/12/30 13:28:15;;;;;;;2.00;0.80;;;16.40;77.70;;;;;;5069374;28;20016;-89
2022/12/30 13:31:01;;;;;;;1.48;0.90;;;16.50;78.10;;;;;;5073346;28;20016;-89
2022/12/30 13:33:41;;;;;;;1.10;0.90;;;16.40;77.00;;;;;;5053933;28;20029;-88
2022/12/30 13:36:16;;;;;;;1.80;1.23;;;16.30;76.40;;;;;;5063804;28;20414;-91
2022/12/30 13:39:20;;;;;;;1.15;1.05;;;16.30;76.40;;;;;;5058249;28;20035;-88
2022/12/30 13:42:04;;;;;;;0.98;0.93;;;16.20;76.00;;;;;;5060153;28;20032;-90
2022/12/30 13:44:39;;;;;;;3.53;1.00;;;16.20;78.40;;;;;;5061713;28;20020;-89
2022/12/30 13:47:06;;;;;;;0.98;0.90;;;16.10;76.10;;;;;;5061524;28;20021;-90
2022/12/30 13:49:35;;;;;;;3.05;0.90;;;16.10;75.90;;;;;;5077258;28;20029;-90
2022/12/30 13:52:04;;;;;;;1.23;0.80;;;16.10;76.10;;;;;;5059986;28;20037;-90
2022/12/30 13:54:31;;;;;;;0.95;0.80;;;16.00;75.40;;;;;;5069850;28;20062;-90
2022/12/30 13:57:00;;;;;;;1.10;0.82;;;16.00;75.10;;;;;;5069994;28;20032;-87
2022/12/30 13:59:36;;;;;;;1.13;1.00;;;16.00;75.30;;;;;;5063642;28;20025;-90
2022/12/30 14:02:17;;;;;;;0.70;0.70;;;16.00;75.80;;;;;;5063547;28;20351;-91